sensor_id;sensor_type;location;lat;lon;timestamp;pressure;altitude;pressure_sealevel;temperature;humidity
57859;BME280;49153;45.568;11.894;2023-02-03T00:00:22;102313.06;;;1.37;87.76
57859;BME280;49153;45.568;11.894;2023-02-03T00:02:47;102311.25;;;1.44;88.40
57859;BME280;49153;45.568;11.894;2023-02-03T00:05:13;102296.63;;;1.31;87.67
57859;BME280;49153;45.568;11.894;2023-02-03T00:07:39;102302.69;;;1.31;88.16
57859;BME280;49153;45.568;11.894;2023-02-03T00:10:05;102306.16;;;1.32;87.52
57859;BME280;49153;45.568;11.894;2023-02-03T00:12:32;102295.91;;;1.15;88.22
57859;BME280;49153;45.568;11.894;2023-02-03T00:14:58;102297.56;;;1.22;88.21
57859;BME280;49153;45.568;11.894;2023-02-03T00:17:23;102313.16;;;1.23;88.15
57859;BME280;49153;45.568;11.894;2023-02-03T00:19:48;102311.38;;;1.27;88.52
57859;BME280;49153;45.568;11.894;2023-02-03T00:22:14;102303.56;;;1.27;88.34
57859;BME280;49153;45.568;11.894;2023-02-03T00:24:39;102313.97;;;1.32;87.57
57859;BME280;49153;45.568;11.894;2023-02-03T00:27:05;102327.84;;;1.27;87.76
57859;BME280;49153;45.568;11.894;2023-02-03T00:29:31;102315.75;;;1.25;87.87
57859;BME280;49153;45.568;11.894;2023-02-03T00:31:56;102293.25;;;1.19;88.37
57859;BME280;49153;45.568;11.894;2023-02-03T00:34:27;102295.81;;;1.22;88.52
57859;BME280;49153;45.568;11.894;2023-02-03T00:36:54;102300.09;;;1.30;88.42
57859;BME280;49153;45.568;11.894;2023-02-03T00:39:19;102302.72;;;1.28;88.52
57859;BME280;49153;45.568;11.894;2023-02-03T00:41:45;102273.41;;;1.08;88.35
57859;BME280;49153;45.568;11.894;2023-02-03T00:44:10;102297.59;;;1.17;88.56
57859;BME280;49153;45.568;11.894;2023-02-03T00:46:36;102309.63;;;1.27;88.19
57859;BME280;49153;45.568;11.894;2023-02-03T00:49:03;102308.78;;;1.32;88.81
57859;BME280;49153;45.568;11.894;2023-02-03T00:51:28;102288.88;;;1.26;88.89
57859;BME280;49153;45.568;11.894;2023-02-03T00:53:54;102291.44;;;1.27;87.87
57859;BME280;49153;45.568;11.894;2023-02-03T00:56:20;102299.25;;;1.31;87.88
57859;BME280;49153;45.568;11.894;2023-02-03T00:58:46;102295.81;;;1.25;88.32
57859;BME280;49153;45.568;11.894;2023-02-03T01:01:11;102307.94;;;1.23;87.90
57859;BME280;49153;45.568;11.894;2023-02-03T01:03:37;102320.03;;;1.32;89.37
57859;BME280;49153;45.568;11.894;2023-02-03T01:06:14;102336.41;;;1.39;88.30
57859;BME280;49153;45.568;11.894;2023-02-03T01:08:40;102326.03;;;1.39;88.27
57859;BME280;49153;45.568;11.894;2023-02-03T01:11:10;102340.78;;;1.35;87.66
57859;BME280;49153;45.568;11.894;2023-02-03T01:13:36;102332.25;;;1.16;87.57
57859;BME280;49153;45.568;11.894;2023-02-03T01:16:02;102333.97;;;1.19;87.68
57859;BME280;49153;45.568;11.894;2023-02-03T01:18:27;102352.16;;;1.19;87.62
57859;BME280;49153;45.568;11.894;2023-02-03T01:20:52;102325.41;;;1.05;87.66
57859;BME280;49153;45.568;11.894;2023-02-03T01:23:18;102328.88;;;1.05;88.06
57859;BME280;49153;45.568;11.894;2023-02-03T01:25:43;102328.00;;;1.03;87.51
57859;BME280;49153;45.568;11.894;2023-02-03T01:28:09;102328.97;;;0.89;87.11
57859;BME280;49153;45.568;11.894;2023-02-03T01:30:34;102341.97;;;0.87;87.45
57859;BME280;49153;45.568;11.894;2023-02-03T01:33:00;102333.34;;;0.82;87.45
57859;BME280;49153;45.568;11.894;2023-02-03T01:35:25;102321.28;;;0.72;87.35
57859;BME280;49153;45.568;11.894;2023-02-03T01:37:51;102347.22;;;0.78;87.35
57859;BME280;49153;45.568;11.894;2023-02-03T01:40:18;102349.81;;;0.78;87.23
57859;BME280;49153;45.568;11.894;2023-02-03T01:42:43;102347.19;;;0.79;87.53
57859;BME280;49153;45.568;11.894;2023-02-03T01:45:09;102344.59;;;0.82;87.83
57859;BME280;49153;45.568;11.894;2023-02-03T01:47:45;102362.78;;;0.84;87.39
57859;BME280;49153;45.568;11.894;2023-02-03T01:50:26;102342.03;;;0.78;87.54
57859;BME280;49153;45.568;11.894;2023-02-03T01:53:03;102323.88;;;0.73;88.01
57859;BME280;49153;45.568;11.894;2023-02-03T01:55:34;102342.03;;;0.78;88.04
57859;BME280;49153;45.568;11.894;2023-02-03T01:58:07;102335.13;;;0.69;88.16
57859;BME280;49153;45.568;11.894;2023-02-03T02:00:35;102348.06;;;0.77;88.11
57859;BME280;49153;45.568;11.894;2023-02-03T02:03:02;102338.59;;;0.65;88.34
57859;BME280;49153;45.568;11.894;2023-02-03T02:05:35;102302.38;;;0.47;90.70
57859;BME280;49153;45.568;11.894;2023-02-03T02:08:03;102310.97;;;0.55;91.79
57859;BME280;49153;45.568;11.894;2023-02-03T02:10:30;102295.38;;;0.57;93.01
57859;BME280;49153;45.568;11.894;2023-02-03T02:12:57;102300.56;;;0.63;94.00
57859;BME280;49153;45.568;11.894;2023-02-03T02:15:35;102291.03;;;0.59;94.23
57859;BME280;49153;45.568;11.894;2023-02-03T02:18:17;102306.63;;;0.62;94.69
57859;BME280;49153;45.568;11.894;2023-02-03T02:34:44;102359.34;;;0.76;93.11
57859;BME280;49153;45.568;11.894;2023-02-03T02:37:25;102364.53;;;0.76;92.26
57859;BME280;49153;45.568;11.894;2023-02-03T02:40:24;102358.44;;;0.80;92.39
57859;BME280;49153;45.568;11.894;2023-02-03T02:43:12;102350.66;;;0.83;92.65
57859;BME280;49153;45.568;11.894;2023-02-03T02:45:53;102350.66;;;0.83;92.41
57859;BME280;49153;45.568;11.894;2023-02-03T02:48:29;102348.94;;;0.76;91.83
57859;BME280;49153;45.568;11.894;2023-02-03T02:50:57;102369.66;;;0.85;91.64
57859;BME280;49153;45.568;11.894;2023-02-03T02:53:25;102376.63;;;0.80;91.23
57859;BME280;49153;45.568;11.894;2023-02-03T02:55:54;102355.91;;;0.71;91.06
57859;BME280;49153;45.568;11.894;2023-02-03T02:58:22;102380.97;;;0.78;91.63
57859;BME280;49153;45.568;11.894;2023-02-03T03:00:49;102365.47;;;0.57;91.32
57859;BME280;49153;45.568;11.894;2023-02-03T03:03:18;102392.28;;;0.66;91.46
57859;BME280;49153;45.568;11.894;2023-02-03T03:05:51;102394.03;;;0.60;91.38
57859;BME280;49153;45.568;11.894;2023-02-03T03:08:22;102406.97;;;0.64;91.73
57859;BME280;49153;45.568;11.894;2023-02-03T03:10:51;102426.88;;;0.70;92.07
57859;BME280;49153;45.568;11.894;2023-02-03T03:13:23;102421.66;;;0.76;92.34
57859;BME280;49153;45.568;11.894;2023-02-03T03:15:51;102414.72;;;0.75;92.40
57859;BME280;49153;45.568;11.894;2023-02-03T03:18:22;102408.69;;;0.76;92.53
57859;BME280;49153;45.568;11.894;2023-02-03T03:20:50;102412.97;;;0.81;92.87
57859;BME280;49153;45.568;11.894;2023-02-03T03:23:28;102437.16;;;0.96;92.61
57859;BME280;49153;45.568;11.894;2023-02-03T03:26:02;102431.94;;;1.03;93.02
57859;BME280;49153;45.568;11.894;2023-02-03T03:28:59;102426.72;;;1.06;93.40
57859;BME280;49153;45.568;11.894;2023-02-03T03:31:21;102443.16;;;1.14;93.28
57859;BME280;49153;45.568;11.894;2023-02-03T03:33:47;102441.38;;;1.19;92.94
57859;BME280;49153;45.568;11.894;2023-02-03T03:36:29;102443.13;;;1.20;93.14
57859;BME280;49153;45.568;11.894;2023-02-03T03:39:12;102441.38;;;1.22;92.90
57859;BME280;49153;45.568;11.894;2023-02-03T03:44:18;102453.47;;;1.28;92.61
57859;BME280;49153;45.568;11.894;2023-02-03T03:47:36;102464.72;;;1.32;93.46
57859;BME280;49153;45.568;11.894;2023-02-03T03:49:36;102452.56;;;1.34;93.02
57859;BME280;49153;45.568;11.894;2023-02-03T03:52:07;102415.41;;;1.18;92.71
57859;BME280;49153;45.568;11.894;2023-02-03T03:54:35;102414.53;;;1.19;93.29
57859;BME280;49153;45.568;11.894;2023-02-03T03:57:12;102449.09;;;1.36;93.11
57859;BME280;49153;45.568;11.894;2023-02-03T03:59:43;102459.53;;;1.32;93.54
57859;BME280;49153;45.568;11.894;2023-02-03T04:02:12;102455.19;;;1.31;93.37
57859;BME280;49153;45.568;11.894;2023-02-03T04:04:39;102463.00;;;1.32;93.89
57859;BME280;49153;45.568;11.894;2023-02-03T04:07:05;102473.34;;;1.40;93.85
57859;BME280;49153;45.568;11.894;2023-02-03T04:09:31;102448.25;;;1.34;93.93
57859;BME280;49153;45.568;11.894;2023-02-03T04:11:56;102464.66;;;1.42;94.24
57859;BME280;49153;45.568;11.894;2023-02-03T04:14:31;102465.47;;;1.49;94.03
57859;BME280;49153;45.568;11.894;2023-02-03T04:16:57;102457.69;;;1.53;94.13
57859;BME280;49153;45.568;11.894;2023-02-03T04:19:23;102439.47;;;1.50;94.90
57859;BME280;49153;45.568;11.894;2023-02-03T04:21:48;102438.56;;;1.54;94.44
57859;BME280;49153;45.568;11.894;2023-02-03T04:24:14;102397.03;;;1.44;94.24
57859;BME280;49153;45.568;11.894;2023-02-03T04:26:39;102415.16;;;1.56;94.33
57859;BME280;49153;45.568;11.894;2023-02-03T04:29:05;102416.88;;;1.60;94.38
57859;BME280;49153;45.568;11.894;2023-02-03T04:31:30;102394.38;;;1.56;94.46
57859;BME280;49153;45.568;11.894;2023-02-03T04:33:56;102407.38;;;1.56;94.34
57859;BME280;49153;45.568;11.894;2023-02-03T04:36:21;102425.59;;;1.53;94.04
57859;BME280;49153;45.568;11.894;2023-02-03T04:38:48;102424.75;;;1.51;93.97
57859;BME280;49153;45.568;11.894;2023-02-03T04:41:13;102416.94;;;1.52;94.49
57859;BME280;49153;45.568;11.894;2023-02-03T04:43:39;102412.63;;;1.47;93.86
57859;BME280;49153;45.568;11.894;2023-02-03T04:46:06;102410.06;;;1.42;94.13
57859;BME280;49153;45.568;11.894;2023-02-03T04:48:31;102447.25;;;1.58;93.82
57859;BME280;49153;45.568;11.894;2023-02-03T04:51:00;102428.28;;;1.38;93.80
57859;BME280;49153;45.568;11.894;2023-02-03T04:53:27;102444.63;;;1.58;94.06
57859;BME280;49153;45.568;11.894;2023-02-03T04:55:53;102434.28;;;1.53;94.43
57859;BME280;49153;45.568;11.894;2023-02-03T04:58:18;102422.13;;;1.51;93.51
57859;BME280;49153;45.568;11.894;2023-02-03T05:00:43;102437.69;;;1.58;93.54
57859;BME280;49153;45.568;11.894;2023-02-03T05:03:09;102421.28;;;1.49;93.30
57859;BME280;49153;45.568;11.894;2023-02-03T05:05:34;102409.13;;;1.51;94.17
57859;BME280;49153;45.568;11.894;2023-02-03T05:08:00;102418.69;;;1.49;93.23
57859;BME280;49153;45.568;11.894;2023-02-03T05:10:25;102416.97;;;1.43;93.84
57859;BME280;49153;45.568;11.894;2023-02-03T05:12:51;102416.19;;;1.37;93.10
57859;BME280;49153;45.568;11.894;2023-02-03T05:15:16;102451.66;;;1.42;93.64
57859;BME280;49153;45.568;11.894;2023-02-03T05:17:42;102443.06;;;1.31;94.30
57859;BME280;49153;45.568;11.894;2023-02-03T05:20:08;102440.44;;;1.34;95.08
57859;BME280;49153;45.568;11.894;2023-02-03T05:22:34;102428.38;;;1.25;95.43
57859;BME280;49153;45.568;11.894;2023-02-03T05:25:00;102446.47;;;1.41;94.94
57859;BME280;49153;45.568;11.894;2023-02-03T05:27:26;102448.16;;;1.43;94.48
57859;BME280;49153;45.568;11.894;2023-02-03T05:29:51;102419.63;;;1.33;94.96
57859;BME280;49153;45.568;11.894;2023-02-03T05:32:17;102419.56;;;1.45;94.19
57859;BME280;49153;45.568;11.894;2023-02-03T05:34:42;102399.69;;;1.38;94.64
57859;BME280;49153;45.568;11.894;2023-02-03T05:37:08;102427.31;;;1.54;94.34
57859;BME280;49153;45.568;11.894;2023-02-03T05:39:33;102431.63;;;1.58;94.65
57859;BME280;49153;45.568;11.894;2023-02-03T05:41:58;102432.47;;;1.60;94.72
57859;BME280;49153;45.568;11.894;2023-02-03T05:44:26;102423.84;;;1.56;94.64
57859;BME280;49153;45.568;11.894;2023-02-03T05:46:53;102444.53;;;1.70;94.74
57859;BME280;49153;45.568;11.894;2023-02-03T05:49:19;102437.66;;;1.60;94.00
57859;BME280;49153;45.568;11.894;2023-02-03T05:51:46;102458.44;;;1.69;93.66
57859;BME280;49153;45.568;11.894;2023-02-03T05:54:11;102411.78;;;1.48;93.60
57859;BME280;49153;45.568;11.894;2023-02-03T05:56:37;102420.41;;;1.53;93.56
57859;BME280;49153;45.568;11.894;2023-02-03T05:59:03;102429.06;;;1.50;94.67
57859;BME280;49153;45.568;11.894;2023-02-03T06:01:29;102452.38;;;1.67;94.56
57859;BME280;49153;45.568;11.894;2023-02-03T06:03:55;102420.34;;;1.59;94.71
57859;BME280;49153;45.568;11.894;2023-02-03T06:06:21;102443.63;;;1.77;94.59
57859;BME280;49153;45.568;11.894;2023-02-03T06:08:46;102423.75;;;1.64;94.88
57859;BME280;49153;45.568;11.894;2023-02-03T06:11:12;102434.97;;;1.75;95.38
57859;BME280;49153;45.568;11.894;2023-02-03T06:13:37;102421.13;;;1.73;94.98
57859;BME280;49153;45.568;11.894;2023-02-03T06:16:03;102426.28;;;1.79;95.09
57859;BME280;49153;45.568;11.894;2023-02-03T06:18:28;102415.91;;;1.73;95.55
57859;BME280;49153;45.568;11.894;2023-02-03T06:20:54;102430.53;;;1.88;95.87
57859;BME280;49153;45.568;11.894;2023-02-03T06:23:20;102418.38;;;1.88;95.99
57859;BME280;49153;45.568;11.894;2023-02-03T06:25:49;102402.69;;;1.96;95.82
57859;BME280;49153;45.568;11.894;2023-02-03T06:28:15;102422.59;;;2.04;95.85
57859;BME280;49153;45.568;11.894;2023-02-03T06:30:41;102424.34;;;2.02;95.90
57859;BME280;49153;45.568;11.894;2023-02-03T06:33:07;102449.38;;;2.16;96.27
57859;BME280;49153;45.568;11.894;2023-02-03T06:35:32;102457.19;;;2.12;96.53
57859;BME280;49153;45.568;11.894;2023-02-03T06:37:58;102467.56;;;2.19;96.31
57859;BME280;49153;45.568;11.894;2023-02-03T06:40:23;102455.47;;;2.13;96.43
57859;BME280;49153;45.568;11.894;2023-02-03T06:42:49;102481.41;;;2.27;96.80
57859;BME280;49153;45.568;11.894;2023-02-03T06:45:15;102477.88;;;2.28;97.07
57859;BME280;49153;45.568;11.894;2023-02-03T06:47:42;102484.81;;;2.32;97.37
57859;BME280;49153;45.568;11.894;2023-02-03T06:50:10;102487.34;;;2.41;97.54
57859;BME280;49153;45.568;11.894;2023-02-03T06:52:36;102477.72;;;2.46;97.00
57859;BME280;49153;45.568;11.894;2023-02-03T06:55:03;102472.47;;;2.49;97.73
57859;BME280;49153;45.568;11.894;2023-02-03T06:57:28;102479.38;;;2.54;97.85
57859;BME280;49153;45.568;11.894;2023-02-03T06:59:54;102459.50;;;2.46;97.01
57859;BME280;49153;45.568;11.894;2023-02-03T07:02:20;102468.88;;;2.62;97.14
57859;BME280;49153;45.568;11.894;2023-02-03T07:04:46;102467.97;;;2.65;97.26
57859;BME280;49153;45.568;11.894;2023-02-03T07:07:11;102475.72;;;2.72;97.23
57859;BME280;49153;45.568;11.894;2023-02-03T07:09:38;102476.53;;;2.77;97.93
57859;BME280;49153;45.568;11.894;2023-02-03T07:12:05;102474.84;;;2.73;98.25
57859;BME280;49153;45.568;11.894;2023-02-03T07:14:30;102473.06;;;2.80;97.89
57859;BME280;49153;45.568;11.894;2023-02-03T07:16:56;102441.75;;;2.81;97.93
57859;BME280;49153;45.568;11.894;2023-02-03T07:19:21;102440.00;;;2.80;97.67
57859;BME280;49153;45.568;11.894;2023-02-03T07:21:47;102471.09;;;2.97;97.37
57859;BME280;49153;45.568;11.894;2023-02-03T07:24:12;102480.59;;;3.03;97.37
57859;BME280;49153;45.568;11.894;2023-02-03T07:26:38;102484.00;;;3.08;97.59
57859;BME280;49153;45.568;11.894;2023-02-03T07:29:04;102466.59;;;3.10;98.98
57859;BME280;49153;45.568;11.894;2023-02-03T07:31:29;102482.13;;;3.19;97.94
57859;BME280;49153;45.568;11.894;2023-02-03T07:33:55;102486.44;;;3.21;97.75
57859;BME280;49153;45.568;11.894;2023-02-03T07:36:21;102490.66;;;3.33;98.32
57859;BME280;49153;45.568;11.894;2023-02-03T07:38:48;102490.72;;;3.27;98.37
57859;BME280;49153;45.568;11.894;2023-02-03T07:41:14;102498.34;;;3.42;97.95
57859;BME280;49153;45.568;11.894;2023-02-03T07:43:39;102499.16;;;3.47;98.41
57859;BME280;49153;45.568;11.894;2023-02-03T07:46:04;102517.34;;;3.52;97.91
57859;BME280;49153;45.568;11.894;2023-02-03T07:48:30;102495.66;;;3.48;97.72
57859;BME280;49153;45.568;11.894;2023-02-03T07:50:55;102504.22;;;3.59;98.18
57859;BME280;49153;45.568;11.894;2023-02-03T07:53:21;102498.00;;;3.66;97.68
57859;BME280;49153;45.568;11.894;2023-02-03T07:55:46;102490.16;;;3.66;97.66
57859;BME280;49153;45.568;11.894;2023-02-03T07:58:12;102470.97;;;3.70;98.03
57859;BME280;49153;45.568;11.894;2023-02-03T08:00:37;102481.28;;;3.79;98.25
57859;BME280;49153;45.568;11.894;2023-02-03T08:03:03;102469.84;;;3.87;97.67
57859;BME280;49153;45.568;11.894;2023-02-03T08:05:28;102458.59;;;3.85;97.92
57859;BME280;49153;45.568;11.894;2023-02-03T08:07:55;102473.28;;;3.90;97.71
57859;BME280;49153;45.568;11.894;2023-02-03T08:10:20;102467.13;;;3.96;97.63
57859;BME280;49153;45.568;11.894;2023-02-03T08:12:46;102481.84;;;4.00;97.74
57859;BME280;49153;45.568;11.894;2023-02-03T08:15:12;102480.03;;;4.03;97.82
57859;BME280;49153;45.568;11.894;2023-02-03T08:17:38;102478.19;;;4.08;97.83
57859;BME280;49153;45.568;11.894;2023-02-03T08:20:08;102465.91;;;4.16;98.38
57859;BME280;49153;45.568;11.894;2023-02-03T08:22:33;102463.13;;;4.24;97.85
57859;BME280;49153;45.568;11.894;2023-02-03T08:24:59;102451.72;;;4.30;98.63
57859;BME280;49153;45.568;11.894;2023-02-03T08:27:24;102470.69;;;4.39;98.34
57859;BME280;49153;45.568;11.894;2023-02-03T08:29:50;102474.94;;;4.46;98.37
57859;BME280;49153;45.568;11.894;2023-02-03T08:32:18;102469.59;;;4.52;98.09
57859;BME280;49153;45.568;11.894;2023-02-03T08:34:45;102464.31;;;4.55;98.19
57859;BME280;49153;45.568;11.894;2023-02-03T08:37:13;102465.94;;;4.62;97.95
57859;BME280;49153;45.568;11.894;2023-02-03T08:39:39;102469.25;;;4.71;98.39
57859;BME280;49153;45.568;11.894;2023-02-03T08:42:04;102458.69;;;4.77;97.80
57859;BME280;49153;45.568;11.894;2023-02-03T08:44:31;102482.94;;;4.85;98.19
57859;BME280;49153;45.568;11.894;2023-02-03T08:46:57;102498.50;;;4.91;98.18
57859;BME280;49153;45.568;11.894;2023-02-03T08:49:24;102504.47;;;4.97;97.70
57859;BME280;49153;45.568;11.894;2023-02-03T08:51:50;102491.47;;;4.93;97.31
57859;BME280;49153;45.568;11.894;2023-02-03T08:54:17;102487.94;;;4.97;97.73
57859;BME280;49153;45.568;11.894;2023-02-03T08:56:43;102479.88;;;5.07;97.64
57859;BME280;49153;45.568;11.894;2023-02-03T08:59:08;102465.97;;;5.04;97.85
57859;BME280;49153;45.568;11.894;2023-02-03T09:01:34;102467.41;;;5.19;97.76
57859;BME280;49153;45.568;11.894;2023-02-03T09:03:59;102465.44;;;5.30;97.84
57859;BME280;49153;45.568;11.894;2023-02-03T09:06:29;102460.03;;;5.39;97.46
57859;BME280;49153;45.568;11.894;2023-02-03T09:08:55;102470.03;;;5.59;97.77
57859;BME280;49153;45.568;11.894;2023-02-03T09:11:21;102475.91;;;5.68;97.59
57859;BME280;49153;45.568;11.894;2023-02-03T09:13:46;102470.56;;;5.73;96.99
57859;BME280;49153;45.568;11.894;2023-02-03T09:16:15;102480.78;;;5.83;97.09
57859;BME280;49153;45.568;11.894;2023-02-03T09:18:42;102473.69;;;5.90;96.92
57859;BME280;49153;45.568;11.894;2023-02-03T09:21:09;102468.31;;;5.96;97.20
57859;BME280;49153;45.568;11.894;2023-02-03T09:23:38;102460.97;;;6.10;96.95
57859;BME280;49153;45.568;11.894;2023-02-03T09:26:05;102474.56;;;6.24;96.56
57859;BME280;49153;45.568;11.894;2023-02-03T09:28:32;102469.41;;;6.21;95.86
57859;BME280;49153;45.568;11.894;2023-02-03T09:31:01;102477.94;;;6.29;96.08
57859;BME280;49153;45.568;11.894;2023-02-03T09:33:27;102467.31;;;6.35;95.45
57859;BME280;49153;45.568;11.894;2023-02-03T09:35:54;102439.72;;;6.22;95.58
57859;BME280;49153;45.568;11.894;2023-02-03T09:38:20;102448.16;;;6.33;95.28
57859;BME280;49153;45.568;11.894;2023-02-03T09:40:54;102469.53;;;6.51;95.44
57859;BME280;49153;45.568;11.894;2023-02-03T09:43:42;102464.25;;;6.52;95.36
57859;BME280;49153;45.568;11.894;2023-02-03T09:46:16;102469.34;;;6.57;95.38
57859;BME280;49153;45.568;11.894;2023-02-03T09:48:49;102493.22;;;6.80;95.31
57859;BME280;49153;45.568;11.894;2023-02-03T09:51:22;102514.06;;;6.85;94.63
57859;BME280;49153;45.568;11.894;2023-02-03T09:53:56;102492.59;;;6.70;94.17
57859;BME280;49153;45.568;11.894;2023-02-03T09:56:27;102520.00;;;6.91;94.30
57859;BME280;49153;45.568;11.894;2023-02-03T09:58:54;102515.63;;;6.92;94.18
57859;BME280;49153;45.568;11.894;2023-02-03T10:01:20;102488.75;;;6.82;94.42
57859;BME280;49153;45.568;11.894;2023-02-03T10:04:20;102519.63;;;7.05;94.54
57859;BME280;49153;45.568;11.894;2023-02-03T10:07:01;102516.88;;;7.09;94.67
57859;BME280;49153;45.568;11.894;2023-02-03T10:12:29;102512.28;;;7.17;93.09
57859;BME280;49153;45.568;11.894;2023-02-03T10:17:54;102498.06;;;7.25;91.80
57859;BME280;49153;45.568;11.894;2023-02-03T10:20:42;102475.50;;;7.19;90.97
57859;BME280;49153;45.568;11.894;2023-02-03T10:23:19;102468.47;;;7.19;91.17
57859;BME280;49153;45.568;11.894;2023-02-03T10:25:51;102493.34;;;7.36;90.55
57859;BME280;49153;45.568;11.894;2023-02-03T10:28:33;102451.78;;;7.22;90.55
57859;BME280;49153;45.568;11.894;2023-02-03T10:31:06;102478.16;;;7.47;91.14
57859;BME280;49153;45.568;11.894;2023-02-03T10:33:37;102422.41;;;7.39;90.64
57859;BME280;49153;45.568;11.894;2023-02-03T10:36:12;102437.47;;;7.60;90.44
57859;BME280;49153;45.568;11.894;2023-02-03T10:41:29;102430.00;;;7.74;89.73
57859;BME280;49153;45.568;11.894;2023-02-03T10:43:55;102436.81;;;7.81;88.91
57859;BME280;49153;45.568;11.894;2023-02-03T10:46:31;102443.47;;;7.91;89.26
57859;BME280;49153;45.568;11.894;2023-02-03T10:48:58;102410.53;;;7.81;88.58
57859;BME280;49153;45.568;11.894;2023-02-03T10:51:29;102431.59;;;8.06;88.83
57859;BME280;49153;45.568;11.894;2023-02-03T10:53:56;102418.94;;;8.17;88.37
57859;BME280;49153;45.568;11.894;2023-02-03T10:56:28;102423.59;;;8.35;88.31
57859;BME280;49153;45.568;11.894;2023-02-03T10:58:57;102371.44;;;8.23;87.52
57859;BME280;49153;45.568;11.894;2023-02-03T11:01:46;102374.44;;;8.37;86.77
57859;BME280;49153;45.568;11.894;2023-02-03T11:04:25;102397.81;;;8.70;86.98
57859;BME280;49153;45.568;11.894;2023-02-03T11:06:59;102392.97;;;8.82;86.70
57859;BME280;49153;45.568;11.894;2023-02-03T11:09:37;102393.34;;;8.95;86.67
57859;BME280;49153;45.568;11.894;2023-02-03T11:14:41;102383.53;;;9.22;85.48
57859;BME280;49153;45.568;11.894;2023-02-03T11:17:22;102368.41;;;9.27;85.17
57859;BME280;49153;45.568;11.894;2023-02-03T11:20:02;102362.72;;;9.38;83.82
57859;BME280;49153;45.568;11.894;2023-02-03T11:22:34;102336.56;;;9.33;83.44
57859;BME280;49153;45.568;11.894;2023-02-03T11:25:03;102357.25;;;9.42;82.61
57859;BME280;49153;45.568;11.894;2023-02-03T11:27:30;102330.41;;;9.34;83.20
57859;BME280;49153;45.568;11.894;2023-02-03T11:30:14;102334.66;;;9.58;82.36
57859;BME280;49153;45.568;11.894;2023-02-03T11:32:42;102350.63;;;9.75;82.59
57859;BME280;49153;45.568;11.894;2023-02-03T11:35:20;102327.03;;;9.72;81.85
57859;BME280;49153;45.568;11.894;2023-02-03T11:37:51;102331.50;;;9.70;81.43
57859;BME280;49153;45.568;11.894;2023-02-03T11:43:23;102311.50;;;9.87;80.40
57859;BME280;49153;45.568;11.894;2023-02-03T11:45:50;102317.22;;;9.96;81.17
57859;BME280;49153;45.568;11.894;2023-02-03T11:48:36;102307.66;;;10.14;81.28
57859;BME280;49153;45.568;11.894;2023-02-03T11:59:04;102278.84;;;10.48;79.99
57859;BME280;49153;45.568;11.894;2023-02-03T12:07:15;102268.75;;;10.77;78.75
57859;BME280;49153;45.568;11.894;2023-02-03T12:23:56;102227.41;;;11.12;77.80
57859;BME280;49153;45.568;11.894;2023-02-03T12:29:03;102223.00;;;11.12;77.51
57859;BME280;49153;45.568;11.894;2023-02-03T12:34:33;102232.00;;;11.08;76.17
57859;BME280;49153;45.568;11.894;2023-02-03T12:39:56;102202.34;;;11.20;77.04
57859;BME280;49153;45.568;11.894;2023-02-03T12:42:24;102202.78;;;11.11;75.89
57859;BME280;49153;45.568;11.894;2023-02-03T12:44:55;102210.03;;;11.08;76.12
57859;BME280;49153;45.568;11.894;2023-02-03T12:47:30;102204.75;;;11.08;76.52
57859;BME280;49153;45.568;11.894;2023-02-03T12:50:06;102211.44;;;11.15;75.93
57859;BME280;49153;45.568;11.894;2023-02-03T12:52:43;102206.84;;;11.18;76.42
57859;BME280;49153;45.568;11.894;2023-02-03T12:55:21;102192.72;;;11.19;75.78
57859;BME280;49153;45.568;11.894;2023-02-03T12:57:57;102190.81;;;11.21;76.37
57859;BME280;49153;45.568;11.894;2023-02-03T13:03:16;102168.00;;;11.20;76.06
57859;BME280;49153;45.568;11.894;2023-02-03T13:05:53;102167.84;;;11.23;76.40
57859;BME280;49153;45.568;11.894;2023-02-03T13:08:28;102170.97;;;11.14;75.83
57859;BME280;49153;45.568;11.894;2023-02-03T13:11:03;102168.31;;;11.14;75.93
57859;BME280;49153;45.568;11.894;2023-02-03T13:13:43;102174.16;;;11.21;75.61
57859;BME280;49153;45.568;11.894;2023-02-03T13:16:13;102155.25;;;11.11;74.84
57859;BME280;49153;45.568;11.894;2023-02-03T13:18:46;102143.94;;;11.09;75.51
57859;BME280;49153;45.568;11.894;2023-02-03T13:21:14;102144.63;;;11.13;75.60
57859;BME280;49153;45.568;11.894;2023-02-03T13:23:42;102141.06;;;11.14;75.61
57859;BME280;49153;45.568;11.894;2023-02-03T13:26:41;102134.91;;;11.13;75.55
57859;BME280;49153;45.568;11.894;2023-02-03T13:34:28;102160.69;;;11.08;75.56
57859;BME280;49153;45.568;11.894;2023-02-03T13:43:05;102163.72;;;11.00;75.43
57859;BME280;49153;45.568;11.894;2023-02-03T13:45:39;102156.50;;;11.04;76.20
57859;BME280;49153;45.568;11.894;2023-02-03T13:48:18;102155.03;;;10.98;75.50
57859;BME280;49153;45.568;11.894;2023-02-03T13:50:45;102162.22;;;10.95;76.03
57859;BME280;49153;45.568;11.894;2023-02-03T13:53:22;102160.91;;;10.86;75.71
57859;BME280;49153;45.568;11.894;2023-02-03T13:58:23;102162.34;;;10.93;76.38
57859;BME280;49153;45.568;11.894;2023-02-03T14:05:52;102149.84;;;11.14;75.62
57859;BME280;49153;45.568;11.894;2023-02-03T14:19:11;102146.72;;;10.89;75.66
57859;BME280;49153;45.568;11.894;2023-02-03T14:21:58;102130.88;;;10.89;75.59
57859;BME280;49153;45.568;11.894;2023-02-03T14:24:38;102132.50;;;10.91;75.44
57859;BME280;49153;45.568;11.894;2023-02-03T14:27:18;102140.66;;;10.87;75.29
57859;BME280;49153;45.568;11.894;2023-02-03T14:29:44;102132.34;;;10.77;75.46
57859;BME280;49153;45.568;11.894;2023-02-03T14:32:11;102122.31;;;10.67;75.38
57859;BME280;49153;45.568;11.894;2023-02-03T14:34:39;102126.97;;;10.62;75.60
57859;BME280;49153;45.568;11.894;2023-02-03T14:45:43;102135.59;;;10.82;76.07